sensor_id;sensor_type;location;lat;lon;timestamp;P1;durP1;ratioP1;P2;durP2;ratioP2
23826;SDS011;12094;50.822;4.376;2022-07-23T00:01:27;24.10;;;16.98;;
23826;SDS011;12094;50.822;4.376;2022-07-23T00:03:55;24.35;;;17.67;;
23826;SDS011;12094;50.822;4.376;2022-07-23T00:06:23;21.25;;;16.73;;
23826;SDS011;12094;50.822;4.376;2022-07-23T00:08:51;24.00;;;17.63;;
23826;SDS011;12094;50.822;4.376;2022-07-23T00:11:18;26.75;;;17.92;;
23826;SDS011;12094;50.822;4.376;2022-07-23T00:13:47;23.90;;;17.73;;
23826;SDS011;12094;50.822;4.376;2022-07-23T00:16:16;31.42;;;18.05;;
23826;SDS011;12094;50.822;4.376;2022-07-23T00:18:44;29.10;;;17.90;;
23826;SDS011;12094;50.822;4.376;2022-07-23T00:21:14;25.27;;;18.02;;
23826;SDS011;12094;50.822;4.376;2022-07-23T00:23:41;27.70;;;19.17;;
23826;SDS011;12094;50.822;4.376;2022-07-23T00:26:08;29.90;;;19.63;;
23826;SDS011;12094;50.822;4.376;2022-07-23T00:28:35;26.83;;;19.52;;
23826;SDS011;12094;50.822;4.376;2022-07-23T00:31:03;25.20;;;19.92;;
23826;SDS011;12094;50.822;4.376;2022-07-23T00:33:31;27.02;;;20.00;;
23826;SDS011;12094;50.822;4.376;2022-07-23T00:35:59;26.77;;;19.50;;
23826;SDS011;12094;50.822;4.376;2022-07-23T00:38:27;26.52;;;20.35;;
23826;SDS011;12094;50.822;4.376;2022-07-23T00:40:54;29.25;;;20.50;;
23826;SDS011;12094;50.822;4.376;2022-07-23T00:43:22;28.30;;;21.42;;
23826;SDS011;12094;50.822;4.376;2022-07-23T00:45:50;27.35;;;20.38;;
23826;SDS011;12094;50.822;4.376;2022-07-23T00:48:18;30.17;;;20.90;;
23826;SDS011;12094;50.822;4.376;2022-07-23T00:50:46;29.88;;;21.38;;
23826;SDS011;12094;50.822;4.376;2022-07-23T00:53:14;30.52;;;22.25;;
23826;SDS011;12094;50.822;4.376;2022-07-23T00:55:44;26.50;;;20.80;;
23826;SDS011;12094;50.822;4.376;2022-07-23T00:58:12;27.08;;;20.73;;
23826;SDS011;12094;50.822;4.376;2022-07-23T01:00:41;28.63;;;20.98;;
23826;SDS011;12094;50.822;4.376;2022-07-23T01:03:09;27.10;;;20.63;;
23826;SDS011;12094;50.822;4.376;2022-07-23T01:05:37;33.75;;;21.00;;
23826;SDS011;12094;50.822;4.376;2022-07-23T01:08:10;30.42;;;21.92;;
23826;SDS011;12094;50.822;4.376;2022-07-23T01:10:39;24.67;;;20.65;;
23826;SDS011;12094;50.822;4.376;2022-07-23T01:13:09;31.17;;;21.40;;
23826;SDS011;12094;50.822;4.376;2022-07-23T01:15:39;28.45;;;21.35;;
23826;SDS011;12094;50.822;4.376;2022-07-23T01:18:10;32.75;;;20.83;;
23826;SDS011;12094;50.822;4.376;2022-07-23T01:20:40;24.60;;;19.23;;
23826;SDS011;12094;50.822;4.376;2022-07-23T01:23:09;27.25;;;20.08;;
23826;SDS011;12094;50.822;4.376;2022-07-23T01:25:53;30.63;;;20.00;;
23826;SDS011;12094;50.822;4.376;2022-07-23T01:30:52;27.33;;;20.50;;
23826;SDS011;12094;50.822;4.376;2022-07-23T01:33:20;31.33;;;21.48;;
23826;SDS011;12094;50.822;4.376;2022-07-23T01:35:47;27.52;;;20.75;;
23826;SDS011;12094;50.822;4.376;2022-07-23T01:38:19;27.42;;;20.95;;
23826;SDS011;12094;50.822;4.376;2022-07-23T01:40:47;26.52;;;21.08;;
23826;SDS011;12094;50.822;4.376;2022-07-23T01:43:21;28.70;;;22.13;;
23826;SDS011;12094;50.822;4.376;2022-07-23T01:45:52;30.00;;;21.30;;
23826;SDS011;12094;50.822;4.376;2022-07-23T01:48:20;29.02;;;21.42;;
23826;SDS011;12094;50.822;4.376;2022-07-23T01:51:09;25.70;;;20.63;;
23826;SDS011;12094;50.822;4.376;2022-07-23T01:53:41;27.35;;;21.58;;
23826;SDS011;12094;50.822;4.376;2022-07-23T01:56:10;30.30;;;21.48;;
23826;SDS011;12094;50.822;4.376;2022-07-23T01:58:37;26.38;;;21.15;;
23826;SDS011;12094;50.822;4.376;2022-07-23T02:01:06;28.33;;;21.63;;
23826;SDS011;12094;50.822;4.376;2022-07-23T02:03:34;28.70;;;20.77;;
23826;SDS011;12094;50.822;4.376;2022-07-23T02:06:02;28.15;;;20.55;;
23826;SDS011;12094;50.822;4.376;2022-07-23T02:08:29;33.17;;;21.95;;
23826;SDS011;12094;50.822;4.376;2022-07-23T02:10:58;24.77;;;20.13;;
23826;SDS011;12094;50.822;4.376;2022-07-23T02:13:27;26.23;;;21.50;;
23826;SDS011;12094;50.822;4.376;2022-07-23T02:15:59;31.50;;;20.77;;
23826;SDS011;12094;50.822;4.376;2022-07-23T02:18:28;29.25;;;20.48;;
23826;SDS011;12094;50.822;4.376;2022-07-23T02:23:26;25.70;;;20.10;;
23826;SDS011;12094;50.822;4.376;2022-07-23T02:25:54;30.17;;;20.48;;
23826;SDS011;12094;50.822;4.376;2022-07-23T02:28:22;29.65;;;20.17;;
23826;SDS011;12094;50.822;4.376;2022-07-23T02:30:50;27.52;;;21.50;;
23826;SDS011;12094;50.822;4.376;2022-07-23T02:33:17;28.95;;;20.02;;
23826;SDS011;12094;50.822;4.376;2022-07-23T02:35:45;28.10;;;20.80;;
23826;SDS011;12094;50.822;4.376;2022-07-23T02:38:13;27.42;;;20.45;;
23826;SDS011;12094;50.822;4.376;2022-07-23T02:40:43;28.85;;;20.25;;
23826;SDS011;12094;50.822;4.376;2022-07-23T02:43:12;30.83;;;21.65;;
23826;SDS011;12094;50.822;4.376;2022-07-23T02:45:39;27.77;;;20.30;;
23826;SDS011;12094;50.822;4.376;2022-07-23T02:48:09;29.00;;;21.17;;
23826;SDS011;12094;50.822;4.376;2022-07-23T02:50:42;26.70;;;20.85;;
23826;SDS011;12094;50.822;4.376;2022-07-23T02:53:14;27.77;;;20.70;;
23826;SDS011;12094;50.822;4.376;2022-07-23T02:55:43;35.03;;;21.15;;
23826;SDS011;12094;50.822;4.376;2022-07-23T02:58:11;26.73;;;21.15;;
23826;SDS011;12094;50.822;4.376;2022-07-23T03:00:39;28.63;;;20.27;;
23826;SDS011;12094;50.822;4.376;2022-07-23T03:03:07;29.63;;;20.67;;
23826;SDS011;12094;50.822;4.376;2022-07-23T03:05:35;30.92;;;21.20;;
23826;SDS011;12094;50.822;4.376;2022-07-23T03:08:05;30.67;;;21.63;;
23826;SDS011;12094;50.822;4.376;2022-07-23T03:10:35;34.37;;;22.40;;
23826;SDS011;12094;50.822;4.376;2022-07-23T03:13:03;29.77;;;21.42;;
23826;SDS011;12094;50.822;4.376;2022-07-23T03:15:31;31.27;;;22.25;;
23826;SDS011;12094;50.822;4.376;2022-07-23T03:18:00;26.83;;;21.42;;
23826;SDS011;12094;50.822;4.376;2022-07-23T03:20:29;33.13;;;23.10;;
23826;SDS011;12094;50.822;4.376;2022-07-23T03:22:58;30.38;;;22.15;;
23826;SDS011;12094;50.822;4.376;2022-07-23T03:25:28;31.92;;;21.35;;
23826;SDS011;12094;50.822;4.376;2022-07-23T03:27:57;26.33;;;21.80;;
23826;SDS011;12094;50.822;4.376;2022-07-23T03:30:26;31.08;;;22.15;;
23826;SDS011;12094;50.822;4.376;2022-07-23T03:32:55;26.55;;;21.40;;
23826;SDS011;12094;50.822;4.376;2022-07-23T03:35:23;32.25;;;22.25;;
23826;SDS011;12094;50.822;4.376;2022-07-23T03:38:25;28.38;;;21.30;;
23826;SDS011;12094;50.822;4.376;2022-07-23T03:41:08;30.23;;;20.88;;
23826;SDS011;12094;50.822;4.376;2022-07-23T03:56:20;30.48;;;21.20;;
23826;SDS011;12094;50.822;4.376;2022-07-23T03:58:48;32.72;;;21.92;;
23826;SDS011;12094;50.822;4.376;2022-07-23T04:01:16;32.80;;;21.10;;
23826;SDS011;12094;50.822;4.376;2022-07-23T04:03:43;29.88;;;21.33;;
23826;SDS011;12094;50.822;4.376;2022-07-23T04:06:12;27.13;;;20.58;;
23826;SDS011;12094;50.822;4.376;2022-07-23T04:08:39;30.13;;;20.83;;
23826;SDS011;12094;50.822;4.376;2022-07-23T04:11:07;30.70;;;21.10;;
23826;SDS011;12094;50.822;4.376;2022-07-23T04:13:36;29.42;;;21.33;;
23826;SDS011;12094;50.822;4.376;2022-07-23T04:16:04;29.23;;;21.45;;
23826;SDS011;12094;50.822;4.376;2022-07-23T04:18:34;27.80;;;20.20;;
23826;SDS011;12094;50.822;4.376;2022-07-23T04:21:10;28.02;;;20.85;;
23826;SDS011;12094;50.822;4.376;2022-07-23T04:23:38;29.75;;;21.33;;
23826;SDS011;12094;50.822;4.376;2022-07-23T04:26:05;30.25;;;20.92;;
23826;SDS011;12094;50.822;4.376;2022-07-23T04:28:35;28.23;;;21.70;;
23826;SDS011;12094;50.822;4.376;2022-07-23T04:31:04;30.83;;;20.58;;
23826;SDS011;12094;50.822;4.376;2022-07-23T04:33:33;27.55;;;20.05;;
23826;SDS011;12094;50.822;4.376;2022-07-23T04:36:05;29.33;;;20.73;;
23826;SDS011;12094;50.822;4.376;2022-07-23T04:38:33;28.05;;;20.67;;
23826;SDS011;12094;50.822;4.376;2022-07-23T04:41:02;29.17;;;20.88;;
23826;SDS011;12094;50.822;4.376;2022-07-23T04:43:29;27.65;;;21.73;;
23826;SDS011;12094;50.822;4.376;2022-07-23T04:45:57;29.42;;;20.50;;
23826;SDS011;12094;50.822;4.376;2022-07-23T04:48:27;25.42;;;20.23;;
23826;SDS011;12094;50.822;4.376;2022-07-23T04:51:06;27.50;;;20.80;;
23826;SDS011;12094;50.822;4.376;2022-07-23T04:53:36;29.15;;;20.35;;
23826;SDS011;12094;50.822;4.376;2022-07-23T04:56:05;27.20;;;20.55;;
23826;SDS011;12094;50.822;4.376;2022-07-23T04:58:35;27.88;;;19.92;;
23826;SDS011;12094;50.822;4.376;2022-07-23T05:01:03;26.10;;;20.02;;
23826;SDS011;12094;50.822;4.376;2022-07-23T05:03:33;31.88;;;20.67;;
23826;SDS011;12094;50.822;4.376;2022-07-23T05:06:00;28.60;;;20.92;;
23826;SDS011;12094;50.822;4.376;2022-07-23T05:08:27;26.30;;;19.08;;
23826;SDS011;12094;50.822;4.376;2022-07-23T05:10:55;28.05;;;19.27;;
23826;SDS011;12094;50.822;4.376;2022-07-23T05:13:23;26.73;;;17.83;;
23826;SDS011;12094;50.822;4.376;2022-07-23T05:15:53;29.88;;;19.33;;
23826;SDS011;12094;50.822;4.376;2022-07-23T05:18:21;23.33;;;18.30;;
23826;SDS011;12094;50.822;4.376;2022-07-23T05:20:48;26.73;;;18.40;;
23826;SDS011;12094;50.822;4.376;2022-07-23T05:23:18;28.17;;;17.95;;
23826;SDS011;12094;50.822;4.376;2022-07-23T05:25:47;23.02;;;16.98;;
23826;SDS011;12094;50.822;4.376;2022-07-23T05:28:18;26.73;;;18.50;;
23826;SDS011;12094;50.822;4.376;2022-07-23T05:30:50;22.90;;;17.35;;
23826;SDS011;12094;50.822;4.376;2022-07-23T05:33:19;24.02;;;17.20;;
23826;SDS011;12094;50.822;4.376;2022-07-23T05:35:47;21.75;;;16.88;;
23826;SDS011;12094;50.822;4.376;2022-07-23T05:38:25;25.27;;;17.95;;
23826;SDS011;12094;50.822;4.376;2022-07-23T05:40:54;25.60;;;18.05;;
23826;SDS011;12094;50.822;4.376;2022-07-23T05:43:22;21.77;;;18.42;;
23826;SDS011;12094;50.822;4.376;2022-07-23T05:45:51;25.77;;;17.27;;
23826;SDS011;12094;50.822;4.376;2022-07-23T05:48:18;26.65;;;17.60;;
23826;SDS011;12094;50.822;4.376;2022-07-23T05:51:10;28.77;;;17.98;;
23826;SDS011;12094;50.822;4.376;2022-07-23T05:53:41;25.53;;;17.87;;
23826;SDS011;12094;50.822;4.376;2022-07-23T05:56:14;28.80;;;18.65;;
23826;SDS011;12094;50.822;4.376;2022-07-23T05:58:42;24.85;;;18.33;;
23826;SDS011;12094;50.822;4.376;2022-07-23T06:01:11;22.50;;;17.27;;
23826;SDS011;12094;50.822;4.376;2022-07-23T06:03:47;25.30;;;15.95;;
23826;SDS011;12094;50.822;4.376;2022-07-23T06:06:15;22.70;;;17.60;;
23826;SDS011;12094;50.822;4.376;2022-07-23T06:08:42;27.70;;;17.55;;
23826;SDS011;12094;50.822;4.376;2022-07-23T06:11:10;22.63;;;17.85;;
23826;SDS011;12094;50.822;4.376;2022-07-23T06:13:37;24.25;;;16.83;;
23826;SDS011;12094;50.822;4.376;2022-07-23T06:16:05;27.70;;;17.23;;
23826;SDS011;12094;50.822;4.376;2022-07-23T06:18:33;29.05;;;16.38;;
23826;SDS011;12094;50.822;4.376;2022-07-23T06:21:00;22.15;;;16.75;;
23826;SDS011;12094;50.822;4.376;2022-07-23T06:23:31;20.88;;;16.42;;
23826;SDS011;12094;50.822;4.376;2022-07-23T06:25:58;23.45;;;16.27;;
23826;SDS011;12094;50.822;4.376;2022-07-23T06:28:26;19.42;;;16.50;;
23826;SDS011;12094;50.822;4.376;2022-07-23T06:30:53;23.60;;;16.70;;
23826;SDS011;12094;50.822;4.376;2022-07-23T06:33:23;22.05;;;16.13;;
23826;SDS011;12094;50.822;4.376;2022-07-23T06:35:50;19.42;;;16.13;;
23826;SDS011;12094;50.822;4.376;2022-07-23T06:38:19;21.58;;;15.77;;
23826;SDS011;12094;50.822;4.376;2022-07-23T06:40:47;21.27;;;15.82;;
23826;SDS011;12094;50.822;4.376;2022-07-23T06:43:15;24.83;;;17.05;;
23826;SDS011;12094;50.822;4.376;2022-07-23T06:45:44;24.33;;;16.15;;
23826;SDS011;12094;50.822;4.376;2022-07-23T06:48:11;21.67;;;16.52;;
23826;SDS011;12094;50.822;4.376;2022-07-23T06:50:41;22.55;;;16.45;;
23826;SDS011;12094;50.822;4.376;2022-07-23T06:53:09;22.45;;;16.52;;
23826;SDS011;12094;50.822;4.376;2022-07-23T06:55:40;22.10;;;17.55;;
23826;SDS011;12094;50.822;4.376;2022-07-23T06:58:07;22.05;;;17.25;;
23826;SDS011;12094;50.822;4.376;2022-07-23T07:00:36;25.50;;;16.60;;
23826;SDS011;12094;50.822;4.376;2022-07-23T07:03:06;26.70;;;17.70;;
23826;SDS011;12094;50.822;4.376;2022-07-23T07:05:33;26.90;;;17.55;;
23826;SDS011;12094;50.822;4.376;2022-07-23T07:08:00;24.05;;;15.82;;
23826;SDS011;12094;50.822;4.376;2022-07-23T07:10:27;22.30;;;16.30;;
23826;SDS011;12094;50.822;4.376;2022-07-23T07:12:55;22.13;;;16.50;;
23826;SDS011;12094;50.822;4.376;2022-07-23T07:15:22;27.42;;;17.30;;
23826;SDS011;12094;50.822;4.376;2022-07-23T07:17:49;24.73;;;16.42;;
23826;SDS011;12094;50.822;4.376;2022-07-23T07:20:16;21.48;;;16.20;;
23826;SDS011;12094;50.822;4.376;2022-07-23T07:22:43;24.33;;;16.15;;
23826;SDS011;12094;50.822;4.376;2022-07-23T07:25:10;18.88;;;15.07;;
23826;SDS011;12094;50.822;4.376;2022-07-23T07:27:37;22.60;;;15.73;;
23826;SDS011;12094;50.822;4.376;2022-07-23T07:30:05;20.88;;;15.65;;
23826;SDS011;12094;50.822;4.376;2022-07-23T07:32:33;22.30;;;14.63;;
23826;SDS011;12094;50.822;4.376;2022-07-23T07:35:20;22.05;;;14.80;;
23826;SDS011;12094;50.822;4.376;2022-07-23T07:37:47;21.10;;;15.20;;
23826;SDS011;12094;50.822;4.376;2022-07-23T07:40:14;24.70;;;15.02;;
23826;SDS011;12094;50.822;4.376;2022-07-23T07:42:44;21.20;;;13.82;;
23826;SDS011;12094;50.822;4.376;2022-07-23T07:45:13;21.20;;;14.25;;
23826;SDS011;12094;50.822;4.376;2022-07-23T07:47:42;26.38;;;15.27;;
23826;SDS011;12094;50.822;4.376;2022-07-23T07:50:10;21.20;;;14.77;;
23826;SDS011;12094;50.822;4.376;2022-07-23T07:52:37;22.45;;;13.57;;
23826;SDS011;12094;50.822;4.376;2022-07-23T07:55:05;22.85;;;13.52;;
23826;SDS011;12094;50.822;4.376;2022-07-23T07:57:35;20.92;;;15.43;;
23826;SDS011;12094;50.822;4.376;2022-07-23T08:00:03;18.52;;;13.82;;
23826;SDS011;12094;50.822;4.376;2022-07-23T08:02:39;22.23;;;13.77;;
23826;SDS011;12094;50.822;4.376;2022-07-23T08:05:08;21.67;;;13.85;;
23826;SDS011;12094;50.822;4.376;2022-07-23T08:07:35;20.83;;;12.98;;
23826;SDS011;12094;50.822;4.376;2022-07-23T08:10:04;18.67;;;12.95;;
23826;SDS011;12094;50.822;4.376;2022-07-23T08:12:44;19.65;;;11.60;;
23826;SDS011;12094;50.822;4.376;2022-07-23T08:15:13;20.35;;;12.75;;
23826;SDS011;12094;50.822;4.376;2022-07-23T08:17:43;21.15;;;12.52;;
23826;SDS011;12094;50.822;4.376;2022-07-23T08:20:12;17.25;;;12.80;;
23826;SDS011;12094;50.822;4.376;2022-07-23T08:22:51;19.23;;;12.40;;
23826;SDS011;12094;50.822;4.376;2022-07-23T08:25:31;19.77;;;12.23;;
23826;SDS011;12094;50.822;4.376;2022-07-23T08:28:03;20.85;;;12.50;;
23826;SDS011;12094;50.822;4.376;2022-07-23T08:30:33;18.50;;;13.20;;
23826;SDS011;12094;50.822;4.376;2022-07-23T08:33:02;17.45;;;11.65;;
23826;SDS011;12094;50.822;4.376;2022-07-23T08:35:38;18.70;;;11.80;;
23826;SDS011;12094;50.822;4.376;2022-07-23T08:38:07;18.02;;;11.23;;
23826;SDS011;12094;50.822;4.376;2022-07-23T08:40:37;16.83;;;10.88;;
23826;SDS011;12094;50.822;4.376;2022-07-23T08:43:10;14.30;;;11.07;;
23826;SDS011;12094;50.822;4.376;2022-07-23T08:45:42;15.93;;;10.52;;
23826;SDS011;12094;50.822;4.376;2022-07-23T08:48:12;13.25;;;10.48;;
23826;SDS011;12094;50.822;4.376;2022-07-23T08:50:42;13.88;;;10.77;;
23826;SDS011;12094;50.822;4.376;2022-07-23T08:53:10;18.38;;;11.52;;
23826;SDS011;12094;50.822;4.376;2022-07-23T08:55:37;17.33;;;12.20;;
23826;SDS011;12094;50.822;4.376;2022-07-23T08:58:04;15.90;;;11.50;;
23826;SDS011;12094;50.822;4.376;2022-07-23T09:00:32;16.23;;;11.38;;
23826;SDS011;12094;50.822;4.376;2022-07-23T09:03:00;17.38;;;10.52;;
23826;SDS011;12094;50.822;4.376;2022-07-23T09:05:29;19.35;;;11.40;;
23826;SDS011;12094;50.822;4.376;2022-07-23T09:16:05;15.63;;;10.93;;
23826;SDS011;12094;50.822;4.376;2022-07-23T09:18:45;12.82;;;11.18;;
23826;SDS011;12094;50.822;4.376;2022-07-23T09:23:43;14.50;;;9.63;;
23826;SDS011;12094;50.822;4.376;2022-07-23T09:26:18;13.10;;;9.30;;
23826;SDS011;12094;50.822;4.376;2022-07-23T09:28:51;12.40;;;9.05;;
23826;SDS011;12094;50.822;4.376;2022-07-23T09:31:22;11.13;;;8.98;;
23826;SDS011;12094;50.822;4.376;2022-07-23T09:33:51;14.45;;;9.13;;
23826;SDS011;12094;50.822;4.376;2022-07-23T09:36:32;14.00;;;9.13;;
23826;SDS011;12094;50.822;4.376;2022-07-23T09:39:02;11.57;;;8.48;;
23826;SDS011;12094;50.822;4.376;2022-07-23T09:41:36;11.38;;;7.63;;
23826;SDS011;12094;50.822;4.376;2022-07-23T09:44:16;12.63;;;7.72;;
23826;SDS011;12094;50.822;4.376;2022-07-23T09:46:57;11.93;;;7.57;;
23826;SDS011;12094;50.822;4.376;2022-07-23T09:49:27;12.02;;;7.82;;
23826;SDS011;12094;50.822;4.376;2022-07-23T09:51:56;13.00;;;8.13;;
23826;SDS011;12094;50.822;4.376;2022-07-23T09:54:28;14.50;;;8.27;;
23826;SDS011;12094;50.822;4.376;2022-07-23T09:57:11;11.82;;;8.07;;
23826;SDS011;12094;50.822;4.376;2022-07-23T09:59:42;10.88;;;7.90;;
23826;SDS011;12094;50.822;4.376;2022-07-23T10:02:12;13.35;;;8.23;;
23826;SDS011;12094;50.822;4.376;2022-07-23T10:05:06;11.18;;;6.78;;
23826;SDS011;12094;50.822;4.376;2022-07-23T10:07:54;15.75;;;8.05;;
23826;SDS011;12094;50.822;4.376;2022-07-23T10:10:42;12.52;;;7.70;;
23826;SDS011;12094;50.822;4.376;2022-07-23T10:13:34;13.13;;;9.38;;
23826;SDS011;12094;50.822;4.376;2022-07-23T10:16:18;15.77;;;8.80;;
23826;SDS011;12094;50.822;4.376;2022-07-23T10:18:53;14.23;;;8.95;;
23826;SDS011;12094;50.822;4.376;2022-07-23T10:21:25;12.20;;;8.07;;
23826;SDS011;12094;50.822;4.376;2022-07-23T10:26:40;9.88;;;7.07;;
23826;SDS011;12094;50.822;4.376;2022-07-23T10:34:55;11.25;;;6.07;;
23826;SDS011;12094;50.822;4.376;2022-07-23T10:37:41;11.13;;;6.32;;
23826;SDS011;12094;50.822;4.376;2022-07-23T10:40:11;10.27;;;6.38;;
23826;SDS011;12094;50.822;4.376;2022-07-23T10:42:50;11.27;;;5.75;;
23826;SDS011;12094;50.822;4.376;2022-07-23T10:45:21;10.00;;;5.80;;
23826;SDS011;12094;50.822;4.376;2022-07-23T10:48:20;10.80;;;4.95;;
23826;SDS011;12094;50.822;4.376;2022-07-23T10:59:22;7.82;;;5.13;;
23826;SDS011;12094;50.822;4.376;2022-07-23T11:01:50;6.20;;;5.07;;
23826;SDS011;12094;50.822;4.376;2022-07-23T11:04:18;7.25;;;5.32;;
23826;SDS011;12094;50.822;4.376;2022-07-23T11:20:15;7.72;;;5.28;;
23826;SDS011;12094;50.822;4.376;2022-07-23T11:25:11;8.77;;;5.53;;
23826;SDS011;12094;50.822;4.376;2022-07-23T11:28:14;8.90;;;5.35;;
23826;SDS011;12094;50.822;4.376;2022-07-23T11:30:49;10.75;;;5.72;;
23826;SDS011;12094;50.822;4.376;2022-07-23T11:33:17;10.23;;;6.70;;
23826;SDS011;12094;50.822;4.376;2022-07-23T11:36:01;9.18;;;6.50;;
23826;SDS011;12094;50.822;4.376;2022-07-23T11:38:30;9.50;;;7.10;;
23826;SDS011;12094;50.822;4.376;2022-07-23T11:40:58;10.77;;;7.43;;
23826;SDS011;12094;50.822;4.376;2022-07-23T11:43:25;11.25;;;8.43;;
23826;SDS011;12094;50.822;4.376;2022-07-23T11:45:54;11.18;;;8.13;;
23826;SDS011;12094;50.822;4.376;2022-07-23T11:48:25;12.18;;;8.23;;
23826;SDS011;12094;50.822;4.376;2022-07-23T11:50:55;12.18;;;7.63;;
23826;SDS011;12094;50.822;4.376;2022-07-23T11:53:23;12.10;;;8.05;;
23826;SDS011;12094;50.822;4.376;2022-07-23T11:56:09;8.43;;;6.72;;
23826;SDS011;12094;50.822;4.376;2022-07-23T11:58:38;11.70;;;8.13;;
23826;SDS011;12094;50.822;4.376;2022-07-23T12:01:06;11.00;;;7.35;;
23826;SDS011;12094;50.822;4.376;2022-07-23T12:03:48;14.32;;;7.40;;
23826;SDS011;12094;50.822;4.376;2022-07-23T12:06:17;10.90;;;7.63;;
23826;SDS011;12094;50.822;4.376;2022-07-23T12:08:45;8.77;;;6.13;;
23826;SDS011;12094;50.822;4.376;2022-07-23T12:11:12;11.20;;;7.00;;
23826;SDS011;12094;50.822;4.376;2022-07-23T12:13:40;13.38;;;7.50;;
23826;SDS011;12094;50.822;4.376;2022-07-23T12:16:07;9.40;;;8.35;;
23826;SDS011;12094;50.822;4.376;2022-07-23T12:18:35;10.00;;;7.85;;
23826;SDS011;12094;50.822;4.376;2022-07-23T12:21:03;11.63;;;8.05;;
23826;SDS011;12094;50.822;4.376;2022-07-23T12:23:33;11.68;;;5.90;;
23826;SDS011;12094;50.822;4.376;2022-07-23T12:26:01;9.73;;;7.60;;
23826;SDS011;12094;50.822;4.376;2022-07-23T12:28:31;13.23;;;8.73;;
23826;SDS011;12094;50.822;4.376;2022-07-23T12:30:59;11.35;;;8.20;;
23826;SDS011;12094;50.822;4.376;2022-07-23T12:33:27;15.52;;;8.85;;
23826;SDS011;12094;50.822;4.376;2022-07-23T12:35:55;11.55;;;8.85;;
23826;SDS011;12094;50.822;4.376;2022-07-23T12:38:24;12.20;;;8.57;;
23826;SDS011;12094;50.822;4.376;2022-07-23T12:43:24;13.98;;;8.73;;
23826;SDS011;12094;50.822;4.376;2022-07-23T12:46:06;10.32;;;6.78;;
23826;SDS011;12094;50.822;4.376;2022-07-23T12:48:50;12.55;;;7.68;;
23826;SDS011;12094;50.822;4.376;2022-07-23T12:51:22;13.52;;;8.85;;
23826;SDS011;12094;50.822;4.376;2022-07-23T12:53:57;10.82;;;9.45;;
23826;SDS011;12094;50.822;4.376;2022-07-23T12:56:32;10.98;;;7.47;;
23826;SDS011;12094;50.822;4.376;2022-07-23T13:01:33;11.38;;;7.00;;
23826;SDS011;12094;50.822;4.376;2022-07-23T13:04:14;9.63;;;6.38;;
23826;SDS011;12094;50.822;4.376;2022-07-23T13:06:47;13.73;;;7.03;;
23826;SDS011;12094;50.822;4.376;2022-07-23T13:09:19;8.70;;;6.20;;
23826;SDS011;12094;50.822;4.376;2022-07-23T13:11:47;11.40;;;5.70;;
23826;SDS011;12094;50.822;4.376;2022-07-23T13:14:16;9.88;;;6.28;;
23826;SDS011;12094;50.822;4.376;2022-07-23T13:16:47;9.13;;;6.47;;
23826;SDS011;12094;50.822;4.376;2022-07-23T13:19:16;8.25;;;5.85;;
23826;SDS011;12094;50.822;4.376;2022-07-23T13:21:44;7.07;;;5.72;;
23826;SDS011;12094;50.822;4.376;2022-07-23T13:24:12;9.57;;;6.10;;
23826;SDS011;12094;50.822;4.376;2022-07-23T13:26:39;10.55;;;5.32;;
23826;SDS011;12094;50.822;4.376;2022-07-23T13:29:07;8.40;;;5.35;;
23826;SDS011;12094;50.822;4.376;2022-07-23T13:31:37;12.25;;;5.95;;
23826;SDS011;12094;50.822;4.376;2022-07-23T13:34:05;6.38;;;4.80;;
23826;SDS011;12094;50.822;4.376;2022-07-23T13:36:34;6.72;;;4.95;;
23826;SDS011;12094;50.822;4.376;2022-07-23T13:39:02;5.45;;;4.47;;
23826;SDS011;12094;50.822;4.376;2022-07-23T13:41:32;7.75;;;4.00;;
23826;SDS011;12094;50.822;4.376;2022-07-23T13:43:59;9.68;;;4.38;;
23826;SDS011;12094;50.822;4.376;2022-07-23T13:46:28;9.15;;;4.40;;
23826;SDS011;12094;50.822;4.376;2022-07-23T13:48:56;6.75;;;4.28;;
23826;SDS011;12094;50.822;4.376;2022-07-23T13:51:25;6.03;;;4.80;;
23826;SDS011;12094;50.822;4.376;2022-07-23T13:53:54;10.00;;;4.70;;
23826;SDS011;12094;50.822;4.376;2022-07-23T13:56:21;7.53;;;4.20;;
23826;SDS011;12094;50.822;4.376;2022-07-23T13:58:48;7.15;;;4.63;;
23826;SDS011;12094;50.822;4.376;2022-07-23T14:01:15;7.60;;;4.20;;
23826;SDS011;12094;50.822;4.376;2022-07-23T14:03:44;9.40;;;4.78;;
23826;SDS011;12094;50.822;4.376;2022-07-23T14:06:14;5.30;;;4.05;;
23826;SDS011;12094;50.822;4.376;2022-07-23T14:08:43;6.40;;;4.28;;
23826;SDS011;12094;50.822;4.376;2022-07-23T14:11:12;8.35;;;4.60;;
23826;SDS011;12094;50.822;4.376;2022-07-23T14:13:39;9.10;;;4.45;;
23826;SDS011;12094;50.822;4.376;2022-07-23T14:16:07;6.85;;;4.43;;
23826;SDS011;12094;50.822;4.376;2022-07-23T14:18:35;6.55;;;4.80;;
23826;SDS011;12094;50.822;4.376;2022-07-23T14:21:03;7.03;;;4.70;;
23826;SDS011;12094;50.822;4.376;2022-07-23T14:23:32;6.28;;;4.47;;
23826;SDS011;12094;50.822;4.376;2022-07-23T14:26:00;6.00;;;4.10;;
23826;SDS011;12094;50.822;4.376;2022-07-23T14:28:31;8.35;;;4.50;;
23826;SDS011;12094;50.822;4.376;2022-07-23T14:31:01;5.07;;;4.47;;
23826;SDS011;12094;50.822;4.376;2022-07-23T14:33:28;9.82;;;4.97;;
23826;SDS011;12094;50.822;4.376;2022-07-23T14:35:55;6.75;;;4.60;;
23826;SDS011;12094;50.822;4.376;2022-07-23T14:38:22;6.43;;;4.28;;
23826;SDS011;12094;50.822;4.376;2022-07-23T14:40:49;7.35;;;4.53;;
23826;SDS011;12094;50.822;4.376;2022-07-23T14:43:16;7.80;;;4.93;;
23826;SDS011;12094;50.822;4.376;2022-07-23T14:45:44;7.15;;;4.50;;
23826;SDS011;12094;50.822;4.376;2022-07-23T14:48:14;8.30;;;4.78;;
23826;SDS011;12094;50.822;4.376;2022-07-23T14:50:41;5.20;;;4.63;;
23826;SDS011;12094;50.822;4.376;2022-07-23T14:53:08;9.55;;;4.60;;
23826;SDS011;12094;50.822;4.376;2022-07-23T14:55:35;6.82;;;4.35;;
23826;SDS011;12094;50.822;4.376;2022-07-23T14:58:02;6.22;;;4.78;;
23826;SDS011;12094;50.822;4.376;2022-07-23T15:00:30;9.45;;;5.07;;
23826;SDS011;12094;50.822;4.376;2022-07-23T15:02:58;6.28;;;4.78;;
23826;SDS011;12094;50.822;4.376;2022-07-23T15:05:26;8.02;;;5.53;;
23826;SDS011;12094;50.822;4.376;2022-07-23T15:07:55;7.07;;;4.90;;
23826;SDS011;12094;50.822;4.376;2022-07-23T15:10:22;7.35;;;5.10;;
23826;SDS011;12094;50.822;4.376;2022-07-23T15:12:49;10.30;;;4.80;;
23826;SDS011;12094;50.822;4.376;2022-07-23T15:15:16;9.13;;;5.22;;
23826;SDS011;12094;50.822;4.376;2022-07-23T15:17:44;7.32;;;5.20;;
23826;SDS011;12094;50.822;4.376;2022-07-23T15:20:11;6.93;;;4.85;;
23826;SDS011;12094;50.822;4.376;2022-07-23T15:22:41;6.07;;;5.20;;
23826;SDS011;12094;50.822;4.376;2022-07-23T15:25:08;7.75;;;5.18;;
23826;SDS011;12094;50.822;4.376;2022-07-23T15:27:38;8.15;;;5.40;;
23826;SDS011;12094;50.822;4.376;2022-07-23T15:30:05;7.97;;;4.68;;
23826;SDS011;12094;50.822;4.376;2022-07-23T15:32:33;7.35;;;4.85;;
23826;SDS011;12094;50.822;4.376;2022-07-23T15:35:01;7.22;;;5.35;;
23826;SDS011;12094;50.822;4.376;2022-07-23T15:37:31;6.80;;;5.47;;
23826;SDS011;12094;50.822;4.376;2022-07-23T15:40:01;8.77;;;5.10;;
23826;SDS011;12094;50.822;4.376;2022-07-23T15:42:32;7.38;;;5.13;;
23826;SDS011;12094;50.822;4.376;2022-07-23T15:44:59;10.48;;;5.53;;
23826;SDS011;12094;50.822;4.376;2022-07-23T15:47:27;11.07;;;5.22;;
23826;SDS011;12094;50.822;4.376;2022-07-23T15:49:54;9.07;;;5.10;;
23826;SDS011;12094;50.822;4.376;2022-07-23T15:52:21;15.35;;;5.60;;